Time;durP1;ratioP1;P1;durP2;ratioP2;P2;SDS_P1;SDS_P2;PMS_P1;PMS_P2;Temp;Humidity;BMP_temperature;BMP_pressure;BME280_temperature;BME280_humidity;BME280_pressure;Samples;Min_cycle;Max_cycle;Signal;HPM_P1;HPM_P2
2022/05/17 00:00:47;;;;;;;6.72;1.45;;;19.10;66.70;;;;;;5094977;23;20063;-59
2022/05/17 00:02:49;;;;;;;5.72;1.55;;;19.10;66.70;;;;;;5061929;23;20256;-58
2022/05/17 00:04:51;;;;;;;3.38;1.42;;;19.10;66.70;;;;;;5091542;23;20029;-57
2022/05/17 00:06:54;;;;;;;4.43;1.20;;;19.10;66.70;;;;;;5100941;23;20028;-58
2022/05/17 00:08:57;;;;;;;1.50;0.90;;;19.10;66.80;;;;;;5096727;23;21135;-58
2022/05/17 00:14:34;;;;;;;;;;;19.20;66.90;;;;;;5155297;23;20012;-59
2022/05/17 00:16:36;;;;;;;2.92;0.90;;;19.20;66.70;;;;;;5122973;23;19916;-58
2022/05/17 00:18:39;;;;;;;3.40;1.08;;;19.20;66.60;;;;;;5091420;23;20028;-58
2022/05/17 00:20:42;;;;;;;3.37;1.20;;;19.30;66.60;;;;;;5070997;23;20405;-59
2022/05/17 00:22:44;;;;;;;1.70;1.00;;;19.30;66.60;;;;;;5067649;23;20719;-59
2022/05/17 00:24:47;;;;;;;3.97;1.50;;;19.30;66.60;;;;;;5094292;23;20104;-58
2022/05/17 00:26:49;;;;;;;2.25;0.80;;;19.30;66.40;;;;;;5093074;23;20135;-58
2022/05/17 00:28:51;;;;;;;2.83;1.23;;;19.30;66.40;;;;;;5098014;23;20033;-59
2022/05/17 00:30:53;;;;;;;5.72;1.33;;;19.30;66.20;;;;;;5064042;23;20112;-58
2022/05/17 00:32:55;;;;;;;2.15;0.95;;;19.40;66.20;;;;;;5091650;23;20433;-59
2022/05/17 00:34:57;;;;;;;1.00;0.90;;;19.40;66.30;;;;;;5097638;23;20048;-59
2022/05/17 00:36:59;;;;;;;1.60;1.00;;;19.40;66.20;;;;;;5089892;23;20462;-57
2022/05/17 00:39:02;;;;;;;1.35;0.80;;;19.40;66.20;;;;;;5090630;23;20484;-58
2022/05/17 00:41:04;;;;;;;2.23;0.97;;;19.40;66.20;;;;;;5096121;23;20029;-58
2022/05/17 00:43:14;;;;;;;0.73;0.70;;;19.40;66.20;;;;;;5067412;23;20484;-59
2022/05/17 00:45:16;;;;;;;1.00;0.77;;;19.40;66.00;;;;;;5093299;23;20425;-58
2022/05/17 00:47:40;;;;;;;1.65;0.73;;;19.40;66.10;;;;;;5091362;23;20372;-57
2022/05/17 00:49:56;;;;;;;2.17;0.88;;;19.40;66.20;;;;;;5094920;23;21055;-60
2022/05/17 00:52:03;;;;;;;0.85;0.68;;;19.40;66.20;;;;;;5097973;23;20134;-60
2022/05/17 00:54:09;;;;;;;0.60;0.60;;;19.50;66.20;;;;;;5093135;23;21028;-58
2022/05/17 00:56:19;;;;;;;0.55;0.50;;;19.50;65.90;;;;;;5090026;23;20515;-59
2022/05/17 00:58:28;;;;;;;0.77;0.50;;;19.50;65.90;;;;;;5091821;23;20910;-59
2022/05/17 01:00:37;;;;;;;2.28;0.77;;;19.50;65.80;;;;;;5088911;23;20225;-58
2022/05/17 01:02:43;;;;;;;2.83;0.70;;;19.50;65.40;;;;;;5092105;23;20417;-57
2022/05/17 01:04:45;;;;;;;1.60;0.80;;;19.50;65.20;;;;;;5096864;23;20037;-60
2022/05/17 01:06:58;;;;;;;2.53;0.98;;;19.60;65.40;;;;;;5092350;23;20779;-60
2022/05/17 01:09:00;;;;;;;2.15;1.10;;;19.50;65.20;;;;;;5096060;23;20064;-61
2022/05/17 01:11:02;;;;;;;3.00;1.08;;;19.50;65.20;;;;;;5091182;23;20028;-60
2022/05/17 01:15:25;;;;;;;1.48;1.05;;;19.60;65.50;;;;;;5067155;23;20104;-60
2022/05/17 01:17:29;;;;;;;1.75;0.88;;;19.60;65.50;;;;;;5096569;23;20033;-63
2022/05/17 01:19:34;;;;;;;2.35;0.90;;;19.60;65.40;;;;;;5072339;23;20466;-60
2022/05/17 01:21:37;;;;;;;2.17;0.90;;;19.60;65.30;;;;;;5089449;23;20627;-60
2022/05/17 01:23:40;;;;;;;2.35;0.80;;;19.60;65.30;;;;;;5063595;23;20151;-57
2022/05/17 01:25:44;;;;;;;1.58;1.10;;;19.60;65.40;;;;;;5094718;23;20035;-57
2022/05/17 01:27:59;;;;;;;5.93;1.15;;;19.60;64.90;;;;;;5097197;23;20146;-60
2022/05/17 01:30:01;;;;;;;4.60;1.02;;;19.60;64.90;;;;;;5071566;23;20057;-60
2022/05/17 01:32:03;;;;;;;4.65;1.45;;;19.70;65.00;;;;;;5062486;23;20620;-60
2022/05/17 01:34:07;;;;;;;1.67;0.90;;;19.70;65.00;;;;;;5090124;23;20025;-57
2022/05/17 01:36:12;;;;;;;1.80;1.00;;;19.70;65.00;;;;;;5096171;23;20473;-59
2022/05/17 01:38:14;;;;;;;5.93;1.42;;;19.70;65.20;;;;;;5071959;23;20405;-58
2022/05/17 01:40:17;;;;;;;1.53;0.60;;;19.70;65.30;;;;;;5089774;23;20102;-60
2022/05/17 01:42:19;;;;;;;1.55;0.98;;;19.70;65.30;;;;;;5090161;23;20024;-61
2022/05/17 01:44:21;;;;;;;1.88;0.80;;;19.80;65.50;;;;;;5099415;23;20448;-56
2022/05/17 01:46:23;;;;;;;2.78;1.00;;;19.70;65.40;;;;;;5091531;23;20029;-59
2022/05/17 01:48:25;;;;;;;3.50;1.10;;;19.80;65.50;;;;;;5092771;23;20135;-56
2022/05/17 01:50:28;;;;;;;1.35;0.80;;;19.80;65.50;;;;;;5098643;23;20273;-59
2022/05/17 01:52:30;;;;;;;4.35;0.90;;;19.80;65.40;;;;;;5094931;23;20060;-55
2022/05/17 01:54:32;;;;;;;2.38;0.65;;;19.80;65.30;;;;;;5092466;23;20024;-58
2022/05/17 01:56:34;;;;;;;1.88;0.60;;;19.90;65.20;;;;;;5094226;23;20036;-55
2022/05/17 01:58:37;;;;;;;1.48;0.85;;;19.90;65.10;;;;;;5098464;23;20169;-58
2022/05/17 02:00:40;;;;;;;4.20;0.80;;;19.90;65.10;;;;;;5092452;23;20028;-57
2022/05/17 02:02:42;;;;;;;2.78;0.80;;;19.90;65.10;;;;;;5092870;23;20198;-56
2022/05/17 02:04:44;;;;;;;1.67;1.08;;;20.00;65.40;;;;;;5100370;23;20584;-54
2022/05/17 02:06:46;;;;;;;3.90;1.60;;;20.00;65.70;;;;;;5093353;23;20025;-57
2022/05/17 02:08:48;;;;;;;2.45;1.00;;;20.00;66.00;;;;;;5094833;23;20349;-58
2022/05/17 02:10:50;;;;;;;3.97;1.13;;;20.00;65.70;;;;;;5098644;23;20095;-56
2022/05/17 02:12:57;;;;;;;3.17;1.30;;;20.00;65.00;;;;;;5067520;23;20107;-58
2022/05/17 02:14:59;;;;;;;3.97;1.27;;;20.10;64.80;;;;;;5092787;23;20482;-59
2022/05/17 02:17:02;;;;;;;2.38;1.10;;;20.00;64.50;;;;;;5091884;23;20102;-58
2022/05/17 02:19:08;;;;;;;3.42;1.33;;;20.00;65.00;;;;;;5071538;23;20454;-59
2022/05/17 02:21:10;;;;;;;3.67;1.27;;;20.10;64.50;;;;;;5098115;23;20343;-58
2022/05/17 02:23:12;;;;;;;2.78;1.20;;;20.00;64.40;;;;;;5091635;23;20033;-58
2022/05/17 02:25:15;;;;;;;3.30;1.15;;;20.10;64.40;;;;;;5093447;23;20428;-59
2022/05/17 02:27:17;;;;;;;3.15;1.15;;;20.00;64.30;;;;;;5097683;23;20063;-57
2022/05/17 02:29:19;;;;;;;3.00;1.00;;;20.10;64.40;;;;;;5041395;23;20386;-57
2022/05/17 02:31:21;;;;;;;4.80;1.33;;;20.10;64.40;;;;;;5094487;23;20348;-57
2022/05/17 02:33:23;;;;;;;4.32;1.20;;;20.10;64.50;;;;;;5098671;23;20028;-60
2022/05/17 02:35:26;;;;;;;3.03;1.27;;;20.10;64.40;;;;;;5094833;23;20087;-58
2022/05/17 02:37:28;;;;;;;2.47;1.08;;;20.10;64.40;;;;;;5092305;23;20025;-58
2022/05/17 02:39:30;;;;;;;2.20;1.00;;;20.10;64.20;;;;;;5095809;23;20028;-58
2022/05/17 02:41:32;;;;;;;2.15;1.15;;;20.10;64.20;;;;;;5095747;23;20294;-58
2022/05/17 02:43:34;;;;;;;3.97;1.33;;;20.10;64.10;;;;;;5064783;23;20139;-51
2022/05/17 02:45:36;;;;;;;3.95;1.25;;;20.20;64.30;;;;;;5067039;23;20025;-57
2022/05/17 02:47:39;;;;;;;12.00;1.73;;;20.20;64.40;;;;;;5097524;23;20032;-54
2022/05/17 02:49:44;;;;;;;4.47;1.33;;;20.40;64.30;;;;;;5093696;23;20128;-53
2022/05/17 02:51:46;;;;;;;6.57;1.45;;;21.00;63.10;;;;;;5063882;23;20079;-52
2022/05/17 02:53:48;;;;;;;9.65;1.75;;;21.70;61.70;;;;;;5097497;23;20032;-52
2022/05/17 02:55:50;;;;;;;5.63;1.30;;;22.40;60.10;;;;;;5097961;23;20556;-55
2022/05/17 02:57:53;;;;;;;5.63;1.40;;;23.00;58.70;;;;;;5094160;23;20075;-51
2022/05/17 02:59:55;;;;;;;4.53;1.00;;;23.60;57.50;;;;;;5094231;23;20039;-51
2022/05/17 03:01:59;;;;;;;2.65;0.90;;;24.10;56.50;;;;;;5097215;23;20089;-57
2022/05/17 03:04:01;;;;;;;3.95;1.00;;;24.50;56.30;;;;;;5094456;23;20028;-55
2022/05/17 03:06:03;;;;;;;1.77;0.85;;;24.50;55.40;;;;;;5093627;23;20107;-53
2022/05/17 03:08:05;;;;;;;3.92;1.45;;;24.30;55.70;;;;;;5096084;23;20181;-54
2022/05/17 03:10:09;;;;;;;0.88;0.50;;;24.10;56.30;;;;;;5096243;23;20280;-56
2022/05/17 03:12:11;;;;;;;1.40;0.68;;;23.90;56.80;;;;;;5093734;23;20215;-55
2022/05/17 03:14:17;;;;;;;2.35;1.00;;;23.60;57.20;;;;;;5095287;23;20128;-51
2022/05/17 03:16:19;;;;;;;3.65;0.70;;;23.40;57.60;;;;;;5099024;23;20047;-55
2022/05/17 03:18:21;;;;;;;1.95;0.70;;;23.30;58.00;;;;;;5094188;23;20585;-49
2022/05/17 03:20:23;;;;;;;1.85;0.73;;;23.20;58.30;;;;;;5092861;23;20032;-55
2022/05/17 03:22:25;;;;;;;2.40;0.77;;;23.10;58.70;;;;;;5097670;23;20424;-56
2022/05/17 03:24:27;;;;;;;1.17;0.60;;;23.00;58.90;;;;;;5067442;23;20297;-55
2022/05/17 03:26:30;;;;;;;0.85;0.70;;;23.00;59.20;;;;;;5093929;23;20496;-51
2022/05/17 03:28:32;;;;;;;3.73;0.57;;;22.90;59.20;;;;;;5097006;23;20137;-52
2022/05/17 03:30:34;;;;;;;2.17;0.52;;;22.90;59.20;;;;;;5098550;23;20569;-49
2022/05/17 03:32:36;;;;;;;1.95;0.60;;;22.80;59.10;;;;;;5092039;23;20310;-51
2022/05/17 03:34:39;;;;;;;4.57;0.70;;;22.80;59.30;;;;;;5093322;23;20029;-48
2022/05/17 03:36:41;;;;;;;2.63;0.90;;;22.80;59.40;;;;;;5073895;23;20572;-49
2022/05/17 03:38:43;;;;;;;2.97;0.63;;;22.80;59.40;;;;;;5093432;23;20031;-53
2022/05/17 03:40:45;;;;;;;2.45;0.52;;;22.80;59.40;;;;;;5091476;23;20066;-53
2022/05/17 03:42:47;;;;;;;1.65;0.82;;;22.80;59.60;;;;;;5099966;23;20561;-48
2022/05/17 03:44:49;;;;;;;2.65;0.50;;;22.80;59.60;;;;;;5095430;23;20532;-54
2022/05/17 03:46:51;;;;;;;1.35;0.70;;;22.80;59.60;;;;;;5092585;23;20032;-53
2022/05/17 03:48:53;;;;;;;3.95;0.95;;;22.80;59.60;;;;;;5069600;23;20025;-54
2022/05/17 03:50:56;;;;;;;6.53;0.90;;;22.80;59.60;;;;;;5096989;23;20376;-53
2022/05/17 03:53:01;;;;;;;8.90;1.42;;;22.80;59.70;;;;;;5092499;23;20784;-53
2022/05/17 03:55:05;;;;;;;2.22;0.63;;;22.80;59.30;;;;;;5094062;23;20515;-54
2022/05/17 03:57:08;;;;;;;8.00;1.00;;;22.90;59.40;;;;;;5099684;23;20369;-51
2022/05/17 03:59:10;;;;;;;2.40;1.02;;;22.90;59.50;;;;;;5095916;23;20071;-51
2022/05/17 04:01:13;;;;;;;5.15;0.80;;;22.90;59.30;;;;;;5067068;23;20025;-49
2022/05/17 04:03:14;;;;;;;;;;;22.90;58.60;;;;;;5094086;23;20033;-52
2022/05/17 04:05:17;;;;;;;8.00;1.23;;;22.90;58.80;;;;;;5099870;23;19959;-47
2022/05/17 04:07:19;;;;;;;1.20;0.60;;;23.00;58.70;;;;;;5092658;23;20136;-52
2022/05/17 04:09:21;;;;;;;2.30;0.60;;;23.00;58.80;;;;;;5094371;23;20035;-49
2022/05/17 04:11:23;;;;;;;1.92;0.98;;;23.10;59.40;;;;;;5100154;23;20741;-52
2022/05/17 04:13:29;;;;;;;3.33;0.93;;;23.10;58.80;;;;;;5069254;23;20379;-49
2022/05/17 04:15:31;;;;;;;2.88;0.50;;;23.20;58.60;;;;;;5093236;23;20116;-48
2022/05/17 04:17:34;;;;;;;1.35;0.45;;;23.20;58.60;;;;;;5095136;23;20032;-49
2022/05/17 04:19:37;;;;;;;1.52;0.55;;;23.30;58.60;;;;;;5097084;23;20028;-47
2022/05/17 04:21:39;;;;;;;1.40;0.70;;;23.30;58.60;;;;;;5092416;23;20245;-47
2022/05/17 04:23:42;;;;;;;1.75;0.75;;;23.30;58.50;;;;;;5092740;23;20039;-53
2022/05/17 04:25:44;;;;;;;1.58;0.50;;;23.40;58.40;;;;;;5098050;23;20131;-50
2022/05/17 04:27:46;;;;;;;1.52;0.60;;;23.50;58.40;;;;;;5097284;23;20539;-55
2022/05/17 04:29:49;;;;;;;0.85;0.55;;;23.50;58.20;;;;;;5100653;23;20024;-53
2022/05/17 04:31:55;;;;;;;1.17;0.88;;;23.60;58.00;;;;;;5110484;23;20025;-56
2022/05/17 04:33:57;;;;;;;1.40;0.45;;;23.60;57.90;;;;;;5134020;23;20016;-49
2022/05/17 04:35:59;;;;;;;1.50;0.40;;;23.70;58.00;;;;;;5132054;23;20025;-49
2022/05/17 04:38:32;;;;;;;1.07;0.50;;;23.70;57.80;;;;;;5135657;23;20025;-52
2022/05/17 04:40:35;;;;;;;1.75;0.32;;;23.80;57.80;;;;;;5101289;23;20273;-49
2022/05/17 04:42:39;;;;;;;1.05;0.47;;;23.80;57.80;;;;;;5094057;23;20713;-47
2022/05/17 04:44:40;;;;;;;;;;;23.80;57.80;;;;;;5097076;23;20029;-50
2022/05/17 04:46:42;;;;;;;1.38;0.63;;;23.90;57.80;;;;;;5072986;23;19967;-49
2022/05/17 04:48:45;;;;;;;1.02;0.50;;;24.00;57.80;;;;;;5097320;23;20070;-47
2022/05/17 04:50:47;;;;;;;1.90;0.50;;;24.00;57.60;;;;;;5094044;23;20034;-52
2022/05/17 04:52:49;;;;;;;0.80;0.50;;;24.10;57.60;;;;;;5092718;23;20028;-46
2022/05/17 04:54:52;;;;;;;0.88;0.43;;;24.10;57.60;;;;;;5098766;23;20024;-51
2022/05/17 04:56:54;;;;;;;2.33;0.40;;;24.20;57.50;;;;;;5092504;23;20126;-52
2022/05/17 04:58:57;;;;;;;2.10;0.70;;;24.30;57.50;;;;;;5091981;23;20028;-49
2022/05/17 05:00:59;;;;;;;1.00;0.63;;;24.30;57.40;;;;;;5097396;23;20060;-48
2022/05/17 05:03:02;;;;;;;1.10;0.60;;;24.40;57.40;;;;;;5064017;23;20533;-49
2022/05/17 05:05:05;;;;;;;1.75;0.63;;;24.40;57.40;;;;;;5065824;23;20489;-50
2022/05/17 05:07:07;;;;;;;1.50;0.73;;;24.40;57.20;;;;;;5092533;23;20025;-49
2022/05/17 05:09:11;;;;;;;2.25;0.95;;;24.40;57.20;;;;;;5097726;23;20224;-48
2022/05/17 05:11:13;;;;;;;2.75;0.77;;;24.40;57.10;;;;;;5089858;23;20025;-49
2022/05/17 05:13:20;;;;;;;1.40;1.05;;;24.40;57.10;;;;;;5094145;23;20334;-50
2022/05/17 05:15:24;;;;;;;1.27;0.60;;;24.50;57.10;;;;;;5092661;23;20035;-55
2022/05/17 05:17:29;;;;;;;2.60;1.00;;;24.50;57.10;;;;;;5094569;23;20032;-49
2022/05/17 05:19:31;;;;;;;2.72;1.00;;;24.50;57.10;;;;;;5092512;23;21116;-54
2022/05/17 05:21:33;;;;;;;4.25;1.25;;;24.50;57.10;;;;;;5065353;23;20029;-47
2022/05/17 05:23:39;;;;;;;2.22;0.90;;;24.50;57.10;;;;;;5091647;23;20120;-52
2022/05/17 05:25:42;;;;;;;4.53;1.30;;;24.40;57.40;;;;;;5097674;23;20046;-49
2022/05/17 05:27:44;;;;;;;4.85;1.67;;;24.40;57.20;;;;;;5095338;23;20024;-54
2022/05/17 05:29:46;;;;;;;2.55;1.35;;;24.30;56.80;;;;;;5096599;23;20031;-51
2022/05/17 05:31:48;;;;;;;4.75;1.30;;;24.20;57.00;;;;;;5101890;23;20032;-54
2022/05/17 05:33:50;;;;;;;6.68;1.67;;;24.20;57.00;;;;;;5095329;23;20524;-55
2022/05/17 05:35:53;;;;;;;6.53;1.83;;;24.20;57.30;;;;;;5096853;23;20115;-55
2022/05/17 05:37:57;;;;;;;7.28;1.70;;;24.20;57.20;;;;;;5098315;23;20077;-55
2022/05/17 05:39:59;;;;;;;4.03;1.35;;;24.20;57.20;;;;;;5103147;23;20497;-49
2022/05/17 05:42:01;;;;;;;7.95;2.47;;;24.10;57.50;;;;;;5093812;23;20024;-53
2022/05/17 05:44:03;;;;;;;8.15;1.42;;;24.10;57.50;;;;;;5068252;23;20062;-54
2022/05/17 05:46:06;;;;;;;5.40;1.73;;;24.10;57.70;;;;;;5102546;23;20571;-50
2022/05/17 05:48:08;;;;;;;7.55;1.83;;;24.00;57.80;;;;;;5091101;23;20028;-51
2022/05/17 05:50:11;;;;;;;11.43;2.15;;;24.00;57.80;;;;;;5090361;23;20513;-52
2022/05/17 05:52:13;;;;;;;4.03;1.30;;;24.00;57.40;;;;;;5092551;23;20356;-52
2022/05/17 05:54:17;;;;;;;9.20;1.33;;;24.00;58.00;;;;;;5094986;23;20063;-51
2022/05/17 05:56:19;;;;;;;6.05;1.30;;;24.00;58.10;;;;;;5068711;23;20039;-50
2022/05/17 05:58:23;;;;;;;3.97;1.05;;;23.90;58.10;;;;;;5104461;23;20039;-52
2022/05/17 06:00:26;;;;;;;8.90;1.80;;;23.90;58.20;;;;;;5102547;23;20074;-50
2022/05/17 06:02:28;;;;;;;2.53;0.82;;;23.80;58.20;;;;;;5099089;23;20521;-54
2022/05/17 06:04:30;;;;;;;4.80;1.30;;;23.80;58.30;;;;;;5101178;23;20636;-53
2022/05/17 06:06:32;;;;;;;4.30;1.20;;;23.80;58.30;;;;;;5100094;23;20028;-50
2022/05/17 06:08:36;;;;;;;3.20;0.93;;;23.80;58.40;;;;;;5100099;23;20340;-53
2022/05/17 06:10:38;;;;;;;4.63;1.40;;;23.70;58.40;;;;;;5091512;23;20496;-52
2022/05/17 06:12:41;;;;;;;3.92;1.42;;;23.70;58.50;;;;;;5087903;23;20548;-48
2022/05/17 06:14:43;;;;;;;5.30;0.82;;;23.70;58.50;;;;;;5095558;23;20102;-52
2022/05/17 06:16:45;;;;;;;4.65;1.05;;;23.70;58.60;;;;;;5092015;23;20134;-51
2022/05/17 06:18:47;;;;;;;2.60;0.63;;;23.70;58.60;;;;;;5093305;23;20029;-46
2022/05/17 06:20:51;;;;;;;4.13;1.20;;;23.60;58.60;;;;;;5098773;23;20335;-50
2022/05/17 06:22:53;;;;;;;2.45;1.08;;;23.70;58.60;;;;;;5090335;23;20513;-46
2022/05/17 06:24:55;;;;;;;2.78;1.00;;;23.70;58.60;;;;;;5090938;23;20408;-50
2022/05/17 06:26:57;;;;;;;1.70;0.80;;;23.70;58.60;;;;;;5090171;23;20127;-54
2022/05/17 06:28:59;;;;;;;1.95;0.80;;;23.70;58.50;;;;;;5071245;23;20516;-47
2022/05/17 06:31:02;;;;;;;4.28;1.13;;;23.80;58.50;;;;;;5064221;23;20191;-53
2022/05/17 06:33:11;;;;;;;1.80;0.82;;;23.70;58.40;;;;;;5092729;23;20469;-52
2022/05/17 06:35:14;;;;;;;2.47;1.00;;;23.80;58.50;;;;;;5094052;23;20036;-55
2022/05/17 06:37:16;;;;;;;11.73;1.85;;;23.80;58.60;;;;;;5068494;23;20537;-57
2022/05/17 06:39:19;;;;;;;3.10;1.20;;;23.80;58.40;;;;;;5091706;23;20028;-50
2022/05/17 06:41:21;;;;;;;8.23;1.35;;;23.80;58.40;;;;;;5091184;23;20069;-51
2022/05/17 06:43:23;;;;;;;3.88;1.30;;;23.90;58.30;;;;;;5098164;23;20028;-52
2022/05/17 06:45:26;;;;;;;1.83;0.70;;;24.00;57.80;;;;;;5091869;23;20362;-55
2022/05/17 06:47:28;;;;;;;2.77;0.90;;;24.00;57.60;;;;;;5065166;23;20766;-52
2022/05/17 06:49:31;;;;;;;1.98;0.95;;;24.00;57.90;;;;;;5095293;23;20651;-54
2022/05/17 06:51:35;;;;;;;3.80;0.95;;;23.90;58.10;;;;;;5096513;23;20028;-54
2022/05/17 06:53:37;;;;;;;1.00;0.68;;;23.80;58.40;;;;;;5062661;23;20096;-55
2022/05/17 06:55:39;;;;;;;2.08;0.90;;;23.70;58.50;;;;;;5062669;23;20029;-53
2022/05/17 06:57:43;;;;;;;2.75;0.85;;;23.60;58.70;;;;;;5094563;23;20051;-55
2022/05/17 06:59:45;;;;;;;;;;;23.60;58.90;;;;;;5093570;23;21069;-55
2022/05/17 07:01:49;;;;;;;6.80;1.00;;;23.50;59.20;;;;;;5063424;23;19920;-55
2022/05/17 07:03:51;;;;;;;3.13;0.90;;;23.50;59.20;;;;;;5094888;23;20404;-50
2022/05/17 07:05:53;;;;;;;2.78;0.98;;;23.40;59.30;;;;;;5098160;23;20357;-48
2022/05/17 07:07:59;;;;;;;2.28;0.60;;;23.40;59.30;;;;;;5088137;23;20095;-53
2022/05/17 07:14:42;;;;;;;2.45;0.93;;;23.30;59.70;;;;;;5097673;23;20025;-48
2022/05/17 07:16:44;;;;;;;8.20;1.70;;;23.30;59.80;;;;;;5093207;23;20040;-53
2022/05/17 07:18:47;;;;;;;11.75;1.70;;;23.30;60.00;;;;;;5094834;23;20588;-56
2022/05/17 07:20:50;;;;;;;4.15;0.90;;;23.20;60.10;;;;;;5099260;23;20031;-56
2022/05/17 07:22:52;;;;;;;1.50;0.70;;;23.30;60.20;;;;;;5095964;23;20595;-51
2022/05/17 07:24:54;;;;;;;4.55;1.10;;;23.20;59.90;;;;;;5092926;23;20032;-49
2022/05/17 07:26:57;;;;;;;3.50;1.00;;;23.20;58.30;;;;;;5096153;23;20029;-50
2022/05/17 07:28:59;;;;;;;2.08;0.82;;;23.20;58.00;;;;;;5097530;23;20876;-54
2022/05/17 07:31:01;;;;;;;1.70;0.82;;;23.20;58.30;;;;;;5092677;23;20085;-54
2022/05/17 07:33:03;;;;;;;1.88;0.70;;;23.10;58.40;;;;;;5094104;23;20040;-51
2022/05/17 07:35:09;;;;;;;3.50;0.93;;;23.20;58.80;;;;;;5098156;23;20060;-52
2022/05/17 07:37:12;;;;;;;1.80;0.70;;;23.10;58.90;;;;;;5096145;23;20091;-51
2022/05/17 07:39:14;;;;;;;2.78;0.80;;;23.10;59.20;;;;;;5066961;23;20607;-51
2022/05/17 07:41:17;;;;;;;1.17;0.55;;;23.10;59.30;;;;;;5096373;23;20031;-52
2022/05/17 07:43:19;;;;;;;1.38;0.77;;;23.10;59.40;;;;;;5098845;23;20052;-52
2022/05/17 07:45:21;;;;;;;1.02;0.60;;;23.10;59.70;;;;;;5093788;23;20028;-53
2022/05/17 07:47:24;;;;;;;1.08;0.70;;;23.10;59.80;;;;;;5093261;23;20029;-46
2022/05/17 07:49:26;;;;;;;3.15;0.77;;;23.10;59.80;;;;;;5097844;23;20024;-51
2022/05/17 07:51:29;;;;;;;2.00;0.70;;;23.10;59.90;;;;;;5094329;23;20029;-51
2022/05/17 07:53:31;;;;;;;1.35;0.85;;;23.10;59.90;;;;;;5094591;23;20032;-54
2022/05/17 07:55:35;;;;;;;2.85;0.70;;;23.10;60.00;;;;;;5098976;23;20114;-54
2022/05/17 07:57:38;;;;;;;1.75;0.75;;;23.10;60.00;;;;;;5070632;23;20524;-55
2022/05/17 07:59:41;;;;;;;1.70;0.60;;;23.10;60.00;;;;;;5093311;23;20032;-54
2022/05/17 08:01:43;;;;;;;1.45;0.70;;;23.10;60.00;;;;;;5092931;23;20029;-55
2022/05/17 08:03:45;;;;;;;1.23;0.68;;;23.10;60.00;;;;;;5099246;23;20098;-50
2022/05/17 08:05:47;;;;;;;1.52;0.60;;;23.10;60.10;;;;;;5092262;23;20025;-52
2022/05/17 08:07:50;;;;;;;2.23;0.70;;;23.10;60.00;;;;;;5092664;23;20552;-54
2022/05/17 08:09:52;;;;;;;3.00;1.00;;;23.10;60.00;;;;;;5097823;23;20378;-54
2022/05/17 08:11:55;;;;;;;1.05;0.55;;;23.10;60.00;;;;;;5094323;23;20043;-51
2022/05/17 08:13:58;;;;;;;4.67;0.60;;;23.10;60.00;;;;;;5091245;23;20405;-50
2022/05/17 08:16:00;;;;;;;0.82;0.70;;;23.00;60.00;;;;;;5092596;23;20100;-54
2022/05/17 08:18:04;;;;;;;1.08;0.50;;;23.00;60.10;;;;;;5096737;23;20389;-54
2022/05/17 08:20:09;;;;;;;0.63;0.40;;;23.00;60.00;;;;;;5090495;23;20024;-55
2022/05/17 08:22:16;;;;;;;1.15;0.43;;;23.00;60.00;;;;;;5087690;23;20139;-56
2022/05/17 08:24:18;;;;;;;4.25;0.93;;;23.00;60.30;;;;;;5088201;23;20031;-54
2022/05/17 08:28:41;;;;;;;2.42;0.90;;;23.00;59.50;;;;;;5091724;23;20024;-55
2022/05/17 08:30:44;;;;;;;2.58;0.77;;;23.00;59.60;;;;;;5093768;23;20032;-54
2022/05/17 08:33:16;;;;;;;4.97;0.85;;;23.00;59.70;;;;;;5088903;23;20033;-54
2022/05/17 08:35:18;;;;;;;2.35;0.77;;;23.00;59.20;;;;;;5087889;23;20043;-51
2022/05/17 08:37:20;;;;;;;2.33;0.63;;;23.00;59.70;;;;;;5095578;23;20484;-48
2022/05/17 08:39:22;;;;;;;1.85;0.70;;;22.90;59.60;;;;;;5090084;23;20519;-54
2022/05/17 08:41:47;;;;;;;2.67;0.85;;;22.90;59.70;;;;;;5088847;23;20257;-48
2022/05/17 08:43:51;;;;;;;1.60;0.60;;;23.00;59.80;;;;;;5090229;23;20412;-49
2022/05/17 08:46:05;;;;;;;3.85;0.98;;;23.00;59.80;;;;;;5089382;23;20028;-52
2022/05/17 08:48:16;;;;;;;3.35;1.20;;;22.90;59.80;;;;;;5088198;23;20028;-54
2022/05/17 08:50:26;;;;;;;2.20;1.00;;;22.90;59.60;;;;;;5091528;23;20265;-53
2022/05/17 08:52:31;;;;;;;3.88;0.98;;;22.90;59.60;;;;;;5086951;23;20028;-56
2022/05/17 08:54:45;;;;;;;4.63;0.95;;;22.90;59.60;;;;;;5094490;23;20612;-52
2022/05/17 08:56:53;;;;;;;4.40;1.35;;;22.90;59.70;;;;;;5096514;23;20238;-56
2022/05/17 08:58:56;;;;;;;3.08;1.27;;;22.90;59.70;;;;;;5100922;23;20443;-58
2022/05/17 09:04:17;;;;;;;2.60;0.80;;;22.90;59.70;;;;;;5137738;23;19937;-59
2022/05/17 09:06:28;;;;;;;3.17;0.90;;;22.80;59.70;;;;;;5128085;23;20028;-58
2022/05/17 09:08:33;;;;;;;8.02;1.25;;;22.80;59.80;;;;;;5125911;22;20023;-60
2022/05/17 09:10:49;;;;;;;2.47;0.70;;;22.80;59.90;;;;;;5126758;22;20428;-60
2022/05/17 09:13:08;;;;;;;6.45;1.08;;;22.80;59.90;;;;;;5116617;23;20452;-59
2022/05/17 09:15:13;;;;;;;4.68;0.80;;;22.70;59.90;;;;;;5115830;22;20747;-59
2022/05/17 09:17:21;;;;;;;3.78;0.60;;;22.70;60.50;;;;;;5116062;22;20036;-59
2022/05/17 09:19:23;;;;;;;3.75;1.05;;;22.70;59.90;;;;;;5114477;22;20098;-58
2022/05/17 09:21:34;;;;;;;14.43;1.90;;;22.70;59.90;;;;;;5121148;22;20098;-59
2022/05/17 09:23:36;;;;;;;18.33;1.48;;;22.70;60.00;;;;;;5119448;22;20024;-58
2022/05/17 09:26:05;;;;;;;6.75;1.50;;;22.70;60.00;;;;;;5114773;22;20137;-60
2022/05/17 09:28:09;;;;;;;3.35;1.05;;;22.60;60.00;;;;;;5115572;23;20031;-56
2022/05/17 09:30:15;;;;;;;9.60;1.42;;;22.60;60.00;;;;;;5116802;22;20032;-54
2022/05/17 09:32:26;;;;;;;5.82;1.45;;;22.60;60.20;;;;;;5112574;23;20078;-52
2022/05/17 09:34:41;;;;;;;2.50;0.85;;;22.60;60.20;;;;;;5114132;22;20193;-54
2022/05/17 09:36:49;;;;;;;3.72;0.90;;;22.60;60.20;;;;;;5119274;23;20040;-55
2022/05/17 09:38:54;;;;;;;11.88;1.50;;;22.60;60.30;;;;;;5115766;22;20351;-55
2022/05/17 09:40:58;;;;;;;2.95;0.95;;;22.60;60.30;;;;;;5118205;22;20059;-54
2022/05/17 09:43:01;;;;;;;;;;;22.60;60.20;;;;;;5122693;22;20119;-49
2022/05/17 09:45:11;;;;;;;5.95;1.33;;;22.60;60.20;;;;;;5126313;22;19921;-57
2022/05/17 09:47:32;;;;;;;5.10;1.52;;;22.60;60.20;;;;;;5122582;22;20347;-59
2022/05/17 09:54:38;;;;;;;18.42;2.22;;;22.50;60.10;;;;;;5099280;23;20210;-56
2022/05/17 09:56:40;;;;;;;11.10;2.13;;;22.50;60.40;;;;;;5125783;22;20338;-57
2022/05/17 09:58:44;;;;;;;17.55;2.25;;;22.50;60.60;;;;;;5119218;22;20506;-54
2022/05/17 10:00:51;;;;;;;10.93;2.38;;;22.50;60.70;;;;;;5115502;23;20189;-53
2022/05/17 10:03:00;;;;;;;11.70;2.03;;;22.50;60.80;;;;;;5118262;22;20090;-54
2022/05/17 10:05:17;;;;;;;9.60;2.25;;;22.50;60.90;;;;;;5120296;22;20129;-52
2022/05/17 10:07:20;;;;;;;6.03;1.63;;;22.50;60.90;;;;;;5117405;23;20034;-57
2022/05/17 10:09:32;;;;;;;;;;;22.50;60.90;;;;;;5125706;22;20037;-56
2022/05/17 10:11:46;;;;;;;6.40;1.48;;;22.50;61.00;;;;;;5125481;22;19942;-53
2022/05/17 10:13:54;;;;;;;;;;;22.40;61.00;;;;;;5122991;22;20119;-52
2022/05/17 10:16:02;;;;;;;8.88;1.88;;;22.40;61.10;;;;;;5122749;22;20140;-54
2022/05/17 10:18:14;;;;;;;4.90;1.40;;;22.40;61.20;;;;;;5126388;22;20023;-51
2022/05/17 10:20:35;;;;;;;5.10;1.33;;;22.40;61.20;;;;;;5120373;23;20071;-49
2022/05/17 10:22:56;;;;;;;3.70;1.00;;;22.40;61.00;;;;;;5123700;22;20038;-50
2022/05/17 10:25:29;;;;;;;4.20;1.00;;;22.40;61.00;;;;;;5119036;22;20465;-51
2022/05/17 10:27:37;;;;;;;5.50;1.17;;;22.30;61.00;;;;;;5123521;23;20473;-55
2022/05/17 10:29:46;;;;;;;3.50;0.82;;;22.40;61.00;;;;;;5124647;22;20185;-51
2022/05/17 10:32:00;;;;;;;11.70;1.10;;;22.30;61.10;;;;;;5143803;22;20714;-52
2022/05/17 10:34:38;;;;;;;4.70;1.30;;;22.30;61.20;;;;;;5122141;22;20024;-58
2022/05/17 10:36:49;;;;;;;4.40;1.05;;;22.30;61.10;;;;;;5110673;23;20117;-55
2022/05/17 10:39:29;;;;;;;5.40;1.30;;;22.30;60.60;;;;;;5117776;22;20118;-54
2022/05/17 10:41:32;;;;;;;4.55;1.63;;;22.30;60.00;;;;;;5118551;22;20091;-54
2022/05/17 10:43:39;;;;;;;6.10;1.45;;;22.30;60.10;;;;;;5123297;22;20106;-54
2022/05/17 10:45:41;;;;;;;4.82;1.42;;;22.30;60.40;;;;;;5120779;23;20138;-55
2022/05/17 10:48:13;;;;;;;2.73;1.63;;;22.20;60.60;;;;;;5115203;23;20310;-56
2022/05/17 10:50:24;;;;;;;6.93;1.50;;;22.20;60.80;;;;;;5085229;22;20098;-56
2022/05/17 10:52:35;;;;;;;1.92;1.23;;;22.30;60.70;;;;;;5119343;22;20028;-54
2022/05/17 10:54:49;;;;;;;1.77;1.20;;;22.20;61.30;;;;;;5121855;22;20030;-58
2022/05/17 10:57:18;;;;;;;3.78;1.48;;;22.20;61.20;;;;;;5118986;22;20028;-58
2022/05/17 10:59:40;;;;;;;2.58;1.10;;;22.30;60.70;;;;;;5121677;22;20027;-55
2022/05/17 11:02:30;;;;;;;1.45;1.25;;;22.20;60.60;;;;;;5124269;22;20028;-57
2022/05/17 11:05:02;;;;;;;4.30;1.35;;;22.20;60.60;;;;;;5101117;22;20036;-56
2022/05/17 11:07:42;;;;;;;3.13;1.35;;;22.20;60.70;;;;;;5145309;22;20360;-55
2022/05/17 11:09:56;;;;;;;1.90;1.15;;;22.20;60.70;;;;;;5065866;22;20100;-57
2022/05/17 11:12:09;;;;;;;2.42;1.15;;;22.20;60.60;;;;;;5117724;22;20087;-55
2022/05/17 11:14:17;;;;;;;2.53;1.15;;;22.20;60.70;;;;;;5118126;22;20341;-58